sensor_id;sensor_type;location;lat;lon;timestamp;P1;durP1;ratioP1;P2;durP2;ratioP2
70406;SDS011;57821;52.202;0.154;2023-08-20T00:00:17;12.20;;;2.70;;
70406;SDS011;57821;52.202;0.154;2023-08-20T00:02:45;17.40;;;3.03;;
70406;SDS011;57821;52.202;0.154;2023-08-20T00:05:13;12.88;;;2.67;;
70406;SDS011;57821;52.202;0.154;2023-08-20T00:07:40;17.20;;;3.03;;
70406;SDS011;57821;52.202;0.154;2023-08-20T00:10:07;14.27;;;3.55;;
70406;SDS011;57821;52.202;0.154;2023-08-20T00:12:34;11.15;;;2.53;;
70406;SDS011;57821;52.202;0.154;2023-08-20T00:15:01;15.75;;;3.45;;
70406;SDS011;57821;52.202;0.154;2023-08-20T00:17:29;12.57;;;2.78;;
70406;SDS011;57821;52.202;0.154;2023-08-20T00:19:57;16.88;;;4.50;;
70406;SDS011;57821;52.202;0.154;2023-08-20T00:22:24;15.45;;;2.83;;
70406;SDS011;57821;52.202;0.154;2023-08-20T00:24:54;16.50;;;3.03;;
70406;SDS011;57821;52.202;0.154;2023-08-20T00:27:21;11.90;;;2.50;;
70406;SDS011;57821;52.202;0.154;2023-08-20T00:29:48;15.15;;;2.78;;
70406;SDS011;57821;52.202;0.154;2023-08-20T00:32:15;17.30;;;2.72;;
70406;SDS011;57821;52.202;0.154;2023-08-20T00:34:42;19.98;;;3.92;;
70406;SDS011;57821;52.202;0.154;2023-08-20T00:37:08;17.33;;;2.90;;
70406;SDS011;57821;52.202;0.154;2023-08-20T00:39:36;16.48;;;3.50;;
70406;SDS011;57821;52.202;0.154;2023-08-20T00:42:02;17.75;;;3.67;;
70406;SDS011;57821;52.202;0.154;2023-08-20T00:44:30;13.82;;;2.80;;
70406;SDS011;57821;52.202;0.154;2023-08-20T00:46:57;16.90;;;3.08;;
70406;SDS011;57821;52.202;0.154;2023-08-20T00:49:25;15.07;;;2.78;;
70406;SDS011;57821;52.202;0.154;2023-08-20T00:51:52;15.23;;;2.90;;
70406;SDS011;57821;52.202;0.154;2023-08-20T00:54:20;14.07;;;2.92;;
70406;SDS011;57821;52.202;0.154;2023-08-20T00:56:47;12.02;;;2.90;;
70406;SDS011;57821;52.202;0.154;2023-08-20T00:59:15;14.95;;;3.10;;
70406;SDS011;57821;52.202;0.154;2023-08-20T01:01:43;10.98;;;2.60;;
70406;SDS011;57821;52.202;0.154;2023-08-20T01:04:10;13.93;;;2.63;;
70406;SDS011;57821;52.202;0.154;2023-08-20T01:09:38;15.88;;;3.58;;
70406;SDS011;57821;52.202;0.154;2023-08-20T01:12:07;17.90;;;3.72;;
70406;SDS011;57821;52.202;0.154;2023-08-20T01:17:05;17.63;;;3.22;;
70406;SDS011;57821;52.202;0.154;2023-08-20T01:19:31;16.17;;;2.95;;
70406;SDS011;57821;52.202;0.154;2023-08-20T01:22:05;14.25;;;2.50;;
70406;SDS011;57821;52.202;0.154;2023-08-20T01:24:58;13.88;;;2.50;;
70406;SDS011;57821;52.202;0.154;2023-08-20T01:27:42;14.70;;;2.70;;
70406;SDS011;57821;52.202;0.154;2023-08-20T01:30:19;16.73;;;3.42;;
70406;SDS011;57821;52.202;0.154;2023-08-20T01:32:49;11.07;;;2.53;;
70406;SDS011;57821;52.202;0.154;2023-08-20T01:35:18;11.05;;;2.53;;
70406;SDS011;57821;52.202;0.154;2023-08-20T01:37:45;14.25;;;2.78;;
70406;SDS011;57821;52.202;0.154;2023-08-20T01:40:11;14.60;;;2.75;;
70406;SDS011;57821;52.202;0.154;2023-08-20T01:42:38;17.13;;;3.35;;
70406;SDS011;57821;52.202;0.154;2023-08-20T01:45:06;17.50;;;2.90;;
70406;SDS011;57821;52.202;0.154;2023-08-20T01:47:33;20.08;;;3.60;;
70406;SDS011;57821;52.202;0.154;2023-08-20T01:50:01;15.75;;;2.60;;
70406;SDS011;57821;52.202;0.154;2023-08-20T01:52:32;14.82;;;3.17;;
70406;SDS011;57821;52.202;0.154;2023-08-20T01:54:58;16.30;;;2.85;;
70406;SDS011;57821;52.202;0.154;2023-08-20T01:57:25;17.20;;;2.85;;
70406;SDS011;57821;52.202;0.154;2023-08-20T01:59:51;13.32;;;3.00;;
70406;SDS011;57821;52.202;0.154;2023-08-20T02:02:18;10.77;;;2.45;;
70406;SDS011;57821;52.202;0.154;2023-08-20T02:04:44;14.38;;;2.80;;
70406;SDS011;57821;52.202;0.154;2023-08-20T02:07:11;12.60;;;3.00;;
70406;SDS011;57821;52.202;0.154;2023-08-20T02:09:37;13.40;;;2.97;;
70406;SDS011;57821;52.202;0.154;2023-08-20T02:12:04;17.52;;;2.88;;
70406;SDS011;57821;52.202;0.154;2023-08-20T02:14:31;15.55;;;2.50;;
70406;SDS011;57821;52.202;0.154;2023-08-20T02:16:58;17.80;;;3.40;;
70406;SDS011;57821;52.202;0.154;2023-08-20T02:19:24;14.10;;;3.53;;
70406;SDS011;57821;52.202;0.154;2023-08-20T02:21:51;12.80;;;2.72;;
70406;SDS011;57821;52.202;0.154;2023-08-20T02:24:19;17.15;;;2.92;;
70406;SDS011;57821;52.202;0.154;2023-08-20T02:26:46;15.60;;;2.78;;
70406;SDS011;57821;52.202;0.154;2023-08-20T02:29:13;16.27;;;2.70;;
70406;SDS011;57821;52.202;0.154;2023-08-20T02:31:39;17.70;;;3.13;;
70406;SDS011;57821;52.202;0.154;2023-08-20T02:34:07;15.60;;;2.85;;
70406;SDS011;57821;52.202;0.154;2023-08-20T02:36:34;19.13;;;2.75;;
70406;SDS011;57821;52.202;0.154;2023-08-20T02:39:00;15.52;;;3.33;;
70406;SDS011;57821;52.202;0.154;2023-08-20T02:41:27;18.58;;;2.85;;
70406;SDS011;57821;52.202;0.154;2023-08-20T02:43:53;12.27;;;2.83;;
70406;SDS011;57821;52.202;0.154;2023-08-20T02:46:20;13.45;;;2.80;;
70406;SDS011;57821;52.202;0.154;2023-08-20T02:48:47;16.80;;;3.65;;
70406;SDS011;57821;52.202;0.154;2023-08-20T02:51:13;13.95;;;2.85;;
70406;SDS011;57821;52.202;0.154;2023-08-20T02:53:40;18.17;;;2.83;;
70406;SDS011;57821;52.202;0.154;2023-08-20T02:56:06;15.57;;;2.95;;
70406;SDS011;57821;52.202;0.154;2023-08-20T02:58:33;17.65;;;3.70;;
70406;SDS011;57821;52.202;0.154;2023-08-20T03:01:00;15.43;;;3.28;;
70406;SDS011;57821;52.202;0.154;2023-08-20T03:03:26;16.70;;;3.40;;
70406;SDS011;57821;52.202;0.154;2023-08-20T03:05:53;14.18;;;2.70;;
70406;SDS011;57821;52.202;0.154;2023-08-20T03:08:20;18.17;;;2.90;;
70406;SDS011;57821;52.202;0.154;2023-08-20T03:10:46;14.95;;;3.42;;
70406;SDS011;57821;52.202;0.154;2023-08-20T03:13:13;17.13;;;3.53;;
70406;SDS011;57821;52.202;0.154;2023-08-20T03:15:40;17.83;;;2.97;;
70406;SDS011;57821;52.202;0.154;2023-08-20T03:18:06;13.00;;;3.15;;
70406;SDS011;57821;52.202;0.154;2023-08-20T03:20:33;15.00;;;3.17;;
70406;SDS011;57821;52.202;0.154;2023-08-20T03:22:59;15.57;;;3.40;;
70406;SDS011;57821;52.202;0.154;2023-08-20T03:25:26;19.55;;;4.47;;
70406;SDS011;57821;52.202;0.154;2023-08-20T03:27:52;14.77;;;2.83;;
70406;SDS011;57821;52.202;0.154;2023-08-20T03:30:19;18.55;;;3.63;;
70406;SDS011;57821;52.202;0.154;2023-08-20T03:32:46;18.48;;;3.53;;
70406;SDS011;57821;52.202;0.154;2023-08-20T03:35:13;10.43;;;3.13;;
70406;SDS011;57821;52.202;0.154;2023-08-20T03:37:41;17.52;;;3.00;;
70406;SDS011;57821;52.202;0.154;2023-08-20T03:40:07;18.27;;;3.55;;
70406;SDS011;57821;52.202;0.154;2023-08-20T03:42:34;16.15;;;3.42;;
70406;SDS011;57821;52.202;0.154;2023-08-20T03:45:02;19.25;;;3.78;;
70406;SDS011;57821;52.202;0.154;2023-08-20T03:47:29;19.27;;;3.47;;
70406;SDS011;57821;52.202;0.154;2023-08-20T03:49:56;18.92;;;4.00;;
70406;SDS011;57821;52.202;0.154;2023-08-20T03:52:23;15.82;;;3.00;;
70406;SDS011;57821;52.202;0.154;2023-08-20T03:54:49;21.17;;;3.95;;
70406;SDS011;57821;52.202;0.154;2023-08-20T03:57:16;19.08;;;3.30;;
70406;SDS011;57821;52.202;0.154;2023-08-20T03:59:43;20.40;;;4.60;;
70406;SDS011;57821;52.202;0.154;2023-08-20T04:02:12;16.40;;;3.83;;
70406;SDS011;57821;52.202;0.154;2023-08-20T04:04:39;18.08;;;3.35;;
70406;SDS011;57821;52.202;0.154;2023-08-20T04:07:05;21.08;;;3.45;;
70406;SDS011;57821;52.202;0.154;2023-08-20T04:09:32;17.80;;;3.60;;
70406;SDS011;57821;52.202;0.154;2023-08-20T04:11:59;23.17;;;4.10;;
70406;SDS011;57821;52.202;0.154;2023-08-20T04:14:26;17.40;;;3.97;;
70406;SDS011;57821;52.202;0.154;2023-08-20T04:16:52;11.43;;;3.28;;
70406;SDS011;57821;52.202;0.154;2023-08-20T04:19:19;16.17;;;4.13;;
70406;SDS011;57821;52.202;0.154;2023-08-20T04:21:45;22.38;;;4.45;;
70406;SDS011;57821;52.202;0.154;2023-08-20T04:24:12;18.13;;;4.20;;
70406;SDS011;57821;52.202;0.154;2023-08-20T04:26:39;18.30;;;4.15;;
70406;SDS011;57821;52.202;0.154;2023-08-20T04:29:05;14.05;;;3.80;;
70406;SDS011;57821;52.202;0.154;2023-08-20T04:31:32;15.63;;;4.28;;
70406;SDS011;57821;52.202;0.154;2023-08-20T04:34:07;18.05;;;4.97;;
70406;SDS011;57821;52.202;0.154;2023-08-20T04:36:39;20.70;;;5.68;;
70406;SDS011;57821;52.202;0.154;2023-08-20T04:39:05;21.17;;;5.25;;
70406;SDS011;57821;52.202;0.154;2023-08-20T04:41:35;20.95;;;4.10;;
70406;SDS011;57821;52.202;0.154;2023-08-20T04:44:03;19.40;;;4.45;;
70406;SDS011;57821;52.202;0.154;2023-08-20T04:46:30;22.13;;;4.60;;
70406;SDS011;57821;52.202;0.154;2023-08-20T04:48:57;18.48;;;3.65;;
70406;SDS011;57821;52.202;0.154;2023-08-20T04:51:23;21.50;;;3.90;;
70406;SDS011;57821;52.202;0.154;2023-08-20T04:53:50;16.63;;;4.28;;
70406;SDS011;57821;52.202;0.154;2023-08-20T04:56:17;21.30;;;3.75;;
70406;SDS011;57821;52.202;0.154;2023-08-20T04:58:43;16.88;;;3.85;;
70406;SDS011;57821;52.202;0.154;2023-08-20T05:01:12;20.00;;;5.13;;
70406;SDS011;57821;52.202;0.154;2023-08-20T05:03:39;20.73;;;3.88;;
70406;SDS011;57821;52.202;0.154;2023-08-20T05:06:06;18.90;;;4.35;;
70406;SDS011;57821;52.202;0.154;2023-08-20T05:08:32;17.90;;;3.65;;
70406;SDS011;57821;52.202;0.154;2023-08-20T05:11:00;16.95;;;3.65;;
70406;SDS011;57821;52.202;0.154;2023-08-20T05:13:26;18.77;;;3.60;;
70406;SDS011;57821;52.202;0.154;2023-08-20T05:15:53;21.75;;;3.53;;
70406;SDS011;57821;52.202;0.154;2023-08-20T05:18:19;21.35;;;3.63;;
70406;SDS011;57821;52.202;0.154;2023-08-20T05:20:46;19.35;;;5.05;;
70406;SDS011;57821;52.202;0.154;2023-08-20T05:23:12;18.27;;;3.40;;
70406;SDS011;57821;52.202;0.154;2023-08-20T05:25:40;16.27;;;3.20;;
70406;SDS011;57821;52.202;0.154;2023-08-20T05:28:07;14.40;;;3.22;;
70406;SDS011;57821;52.202;0.154;2023-08-20T05:30:34;17.63;;;3.72;;
70406;SDS011;57821;52.202;0.154;2023-08-20T05:33:00;15.63;;;3.58;;
70406;SDS011;57821;52.202;0.154;2023-08-20T05:35:33;15.05;;;3.50;;
70406;SDS011;57821;52.202;0.154;2023-08-20T05:38:00;26.00;;;5.13;;
70406;SDS011;57821;52.202;0.154;2023-08-20T05:40:27;22.92;;;3.78;;
70406;SDS011;57821;52.202;0.154;2023-08-20T05:42:53;20.15;;;3.72;;
70406;SDS011;57821;52.202;0.154;2023-08-20T05:45:20;21.00;;;3.85;;
70406;SDS011;57821;52.202;0.154;2023-08-20T05:47:48;20.73;;;3.72;;
70406;SDS011;57821;52.202;0.154;2023-08-20T05:50:15;18.67;;;3.95;;
70406;SDS011;57821;52.202;0.154;2023-08-20T05:52:42;18.70;;;3.28;;
70406;SDS011;57821;52.202;0.154;2023-08-20T05:55:09;16.55;;;3.95;;
70406;SDS011;57821;52.202;0.154;2023-08-20T05:57:36;16.90;;;3.33;;
70406;SDS011;57821;52.202;0.154;2023-08-20T06:00:04;19.85;;;3.90;;
70406;SDS011;57821;52.202;0.154;2023-08-20T06:02:38;17.48;;;3.75;;
70406;SDS011;57821;52.202;0.154;2023-08-20T06:05:05;16.85;;;3.30;;
70406;SDS011;57821;52.202;0.154;2023-08-20T06:07:32;19.00;;;4.82;;
70406;SDS011;57821;52.202;0.154;2023-08-20T06:09:58;18.08;;;3.53;;
70406;SDS011;57821;52.202;0.154;2023-08-20T06:12:25;19.27;;;4.28;;
70406;SDS011;57821;52.202;0.154;2023-08-20T06:14:52;14.75;;;3.47;;
70406;SDS011;57821;52.202;0.154;2023-08-20T06:17:18;15.65;;;3.70;;
70406;SDS011;57821;52.202;0.154;2023-08-20T06:19:45;16.52;;;2.90;;
70406;SDS011;57821;52.202;0.154;2023-08-20T06:22:11;16.45;;;3.13;;
70406;SDS011;57821;52.202;0.154;2023-08-20T06:24:38;19.25;;;3.17;;
70406;SDS011;57821;52.202;0.154;2023-08-20T06:27:05;15.95;;;3.33;;
70406;SDS011;57821;52.202;0.154;2023-08-20T06:29:31;15.23;;;3.15;;
70406;SDS011;57821;52.202;0.154;2023-08-20T06:31:58;14.73;;;3.17;;
70406;SDS011;57821;52.202;0.154;2023-08-20T06:34:24;18.60;;;4.18;;
70406;SDS011;57821;52.202;0.154;2023-08-20T06:36:52;22.20;;;4.03;;
70406;SDS011;57821;52.202;0.154;2023-08-20T06:39:18;21.55;;;3.30;;
70406;SDS011;57821;52.202;0.154;2023-08-20T06:41:45;15.68;;;3.50;;
70406;SDS011;57821;52.202;0.154;2023-08-20T06:44:19;16.77;;;3.25;;
70406;SDS011;57821;52.202;0.154;2023-08-20T06:46:45;13.95;;;2.90;;
70406;SDS011;57821;52.202;0.154;2023-08-20T06:49:12;20.80;;;4.32;;
70406;SDS011;57821;52.202;0.154;2023-08-20T06:51:38;14.32;;;3.15;;
70406;SDS011;57821;52.202;0.154;2023-08-20T06:54:05;13.43;;;3.03;;
70406;SDS011;57821;52.202;0.154;2023-08-20T06:56:32;15.95;;;3.45;;
70406;SDS011;57821;52.202;0.154;2023-08-20T06:58:59;18.70;;;3.33;;
70406;SDS011;57821;52.202;0.154;2023-08-20T07:01:26;19.13;;;2.85;;
70406;SDS011;57821;52.202;0.154;2023-08-20T07:03:53;16.58;;;3.05;;
70406;SDS011;57821;52.202;0.154;2023-08-20T07:06:19;15.40;;;2.90;;
70406;SDS011;57821;52.202;0.154;2023-08-20T07:08:46;18.52;;;3.33;;
70406;SDS011;57821;52.202;0.154;2023-08-20T07:11:13;20.73;;;3.70;;
70406;SDS011;57821;52.202;0.154;2023-08-20T07:13:39;20.25;;;3.50;;
70406;SDS011;57821;52.202;0.154;2023-08-20T07:16:06;18.30;;;4.68;;
70406;SDS011;57821;52.202;0.154;2023-08-20T07:18:33;19.63;;;3.88;;
70406;SDS011;57821;52.202;0.154;2023-08-20T07:20:59;16.33;;;3.90;;
70406;SDS011;57821;52.202;0.154;2023-08-20T07:23:26;16.88;;;3.35;;
70406;SDS011;57821;52.202;0.154;2023-08-20T07:26:03;16.48;;;2.47;;
70406;SDS011;57821;52.202;0.154;2023-08-20T07:28:30;24.67;;;4.65;;
70406;SDS011;57821;52.202;0.154;2023-08-20T07:30:57;13.93;;;2.70;;
70406;SDS011;57821;52.202;0.154;2023-08-20T07:33:24;16.98;;;3.03;;
70406;SDS011;57821;52.202;0.154;2023-08-20T07:35:51;14.38;;;2.85;;
70406;SDS011;57821;52.202;0.154;2023-08-20T07:38:17;17.05;;;2.65;;
70406;SDS011;57821;52.202;0.154;2023-08-20T07:40:44;15.75;;;3.15;;
70406;SDS011;57821;52.202;0.154;2023-08-20T07:43:10;15.30;;;2.85;;
70406;SDS011;57821;52.202;0.154;2023-08-20T07:45:37;12.55;;;2.28;;
70406;SDS011;57821;52.202;0.154;2023-08-20T07:48:03;10.73;;;2.33;;
70406;SDS011;57821;52.202;0.154;2023-08-20T07:50:32;14.63;;;3.28;;
70406;SDS011;57821;52.202;0.154;2023-08-20T07:52:59;13.68;;;2.17;;
70406;SDS011;57821;52.202;0.154;2023-08-20T07:55:25;14.32;;;3.40;;
70406;SDS011;57821;52.202;0.154;2023-08-20T07:57:52;11.30;;;1.98;;
70406;SDS011;57821;52.202;0.154;2023-08-20T08:00:19;16.20;;;2.70;;
70406;SDS011;57821;52.202;0.154;2023-08-20T08:02:45;15.38;;;3.10;;
70406;SDS011;57821;52.202;0.154;2023-08-20T08:05:12;12.52;;;2.60;;
70406;SDS011;57821;52.202;0.154;2023-08-20T08:07:38;12.10;;;2.58;;
70406;SDS011;57821;52.202;0.154;2023-08-20T08:10:05;14.93;;;2.78;;
70406;SDS011;57821;52.202;0.154;2023-08-20T08:12:32;11.35;;;1.98;;
70406;SDS011;57821;52.202;0.154;2023-08-20T08:14:59;13.30;;;2.60;;
70406;SDS011;57821;52.202;0.154;2023-08-20T08:17:28;10.85;;;2.28;;
70406;SDS011;57821;52.202;0.154;2023-08-20T08:20:04;12.25;;;2.17;;
70406;SDS011;57821;52.202;0.154;2023-08-20T08:22:31;11.52;;;2.47;;
70406;SDS011;57821;52.202;0.154;2023-08-20T08:24:58;10.35;;;2.00;;
70406;SDS011;57821;52.202;0.154;2023-08-20T08:27:24;13.52;;;2.00;;
70406;SDS011;57821;52.202;0.154;2023-08-20T08:29:51;11.18;;;2.15;;
70406;SDS011;57821;52.202;0.154;2023-08-20T08:32:17;10.15;;;1.90;;
70406;SDS011;57821;52.202;0.154;2023-08-20T08:34:44;11.30;;;2.38;;
70406;SDS011;57821;52.202;0.154;2023-08-20T08:37:10;9.48;;;1.65;;
70406;SDS011;57821;52.202;0.154;2023-08-20T08:39:37;11.82;;;2.20;;
70406;SDS011;57821;52.202;0.154;2023-08-20T08:42:04;10.32;;;2.13;;
70406;SDS011;57821;52.202;0.154;2023-08-20T08:44:31;12.77;;;2.00;;
70406;SDS011;57821;52.202;0.154;2023-08-20T08:46:58;9.82;;;1.75;;
70406;SDS011;57821;52.202;0.154;2023-08-20T08:49:25;9.18;;;2.05;;
70406;SDS011;57821;52.202;0.154;2023-08-20T08:51:53;12.90;;;2.03;;
70406;SDS011;57821;52.202;0.154;2023-08-20T08:54:22;9.50;;;1.70;;
70406;SDS011;57821;52.202;0.154;2023-08-20T08:56:50;9.52;;;1.70;;
70406;SDS011;57821;52.202;0.154;2023-08-20T08:59:16;9.68;;;2.15;;
70406;SDS011;57821;52.202;0.154;2023-08-20T09:01:43;11.43;;;1.83;;
70406;SDS011;57821;52.202;0.154;2023-08-20T09:04:09;10.57;;;1.77;;
70406;SDS011;57821;52.202;0.154;2023-08-20T09:06:49;9.93;;;1.90;;
70406;SDS011;57821;52.202;0.154;2023-08-20T09:09:17;9.40;;;1.73;;
70406;SDS011;57821;52.202;0.154;2023-08-20T09:11:46;9.57;;;1.80;;
70406;SDS011;57821;52.202;0.154;2023-08-20T09:14:20;13.55;;;2.35;;
70406;SDS011;57821;52.202;0.154;2023-08-20T09:16:47;11.00;;;2.50;;
70406;SDS011;57821;52.202;0.154;2023-08-20T09:19:13;8.15;;;1.80;;
70406;SDS011;57821;52.202;0.154;2023-08-20T09:21:40;10.25;;;1.90;;
70406;SDS011;57821;52.202;0.154;2023-08-20T09:24:12;11.90;;;1.77;;
70406;SDS011;57821;52.202;0.154;2023-08-20T09:26:38;9.88;;;1.48;;
70406;SDS011;57821;52.202;0.154;2023-08-20T09:29:05;6.45;;;1.50;;
70406;SDS011;57821;52.202;0.154;2023-08-20T09:31:38;11.18;;;1.85;;
70406;SDS011;57821;52.202;0.154;2023-08-20T09:34:05;10.15;;;1.80;;
70406;SDS011;57821;52.202;0.154;2023-08-20T09:36:33;9.65;;;1.83;;
70406;SDS011;57821;52.202;0.154;2023-08-20T09:39:01;10.85;;;1.70;;
70406;SDS011;57821;52.202;0.154;2023-08-20T09:41:28;8.50;;;1.63;;
70406;SDS011;57821;52.202;0.154;2023-08-20T09:43:58;9.32;;;2.03;;
70406;SDS011;57821;52.202;0.154;2023-08-20T09:46:26;8.40;;;1.50;;
70406;SDS011;57821;52.202;0.154;2023-08-20T09:48:57;9.00;;;1.42;;
70406;SDS011;57821;52.202;0.154;2023-08-20T09:51:24;6.53;;;1.40;;
70406;SDS011;57821;52.202;0.154;2023-08-20T09:54:14;6.97;;;1.55;;
70406;SDS011;57821;52.202;0.154;2023-08-20T09:56:50;8.02;;;1.50;;
70406;SDS011;57821;52.202;0.154;2023-08-20T09:59:19;7.93;;;1.85;;
70406;SDS011;57821;52.202;0.154;2023-08-20T10:01:46;10.48;;;1.27;;
70406;SDS011;57821;52.202;0.154;2023-08-20T10:04:13;9.32;;;1.48;;
70406;SDS011;57821;52.202;0.154;2023-08-20T10:06:41;9.10;;;1.70;;
70406;SDS011;57821;52.202;0.154;2023-08-20T10:09:09;7.95;;;1.70;;
70406;SDS011;57821;52.202;0.154;2023-08-20T10:11:36;6.75;;;1.13;;
70406;SDS011;57821;52.202;0.154;2023-08-20T10:14:03;6.25;;;1.10;;
70406;SDS011;57821;52.202;0.154;2023-08-20T10:16:29;5.40;;;0.90;;
70406;SDS011;57821;52.202;0.154;2023-08-20T10:19:03;7.70;;;1.20;;
70406;SDS011;57821;52.202;0.154;2023-08-20T10:21:32;6.57;;;1.00;;
70406;SDS011;57821;52.202;0.154;2023-08-20T10:24:03;7.22;;;1.33;;
70406;SDS011;57821;52.202;0.154;2023-08-20T10:26:33;6.60;;;1.20;;
70406;SDS011;57821;52.202;0.154;2023-08-20T10:32:08;7.70;;;1.40;;
70406;SDS011;57821;52.202;0.154;2023-08-20T10:34:36;7.68;;;1.33;;
70406;SDS011;57821;52.202;0.154;2023-08-20T10:37:10;7.55;;;1.98;;
70406;SDS011;57821;52.202;0.154;2023-08-20T10:39:38;9.27;;;1.77;;
70406;SDS011;57821;52.202;0.154;2023-08-20T10:44:56;8.25;;;1.25;;
70406;SDS011;57821;52.202;0.154;2023-08-20T10:47:24;5.15;;;1.08;;
70406;SDS011;57821;52.202;0.154;2023-08-20T10:49:54;9.00;;;2.42;;
70406;SDS011;57821;52.202;0.154;2023-08-20T10:52:23;6.15;;;1.20;;
70406;SDS011;57821;52.202;0.154;2023-08-20T10:54:51;7.57;;;1.20;;
70406;SDS011;57821;52.202;0.154;2023-08-20T10:57:18;6.30;;;1.42;;
70406;SDS011;57821;52.202;0.154;2023-08-20T10:59:47;5.93;;;1.30;;
70406;SDS011;57821;52.202;0.154;2023-08-20T11:02:23;5.93;;;1.00;;
70406;SDS011;57821;52.202;0.154;2023-08-20T11:04:50;6.15;;;0.95;;
70406;SDS011;57821;52.202;0.154;2023-08-20T11:07:17;4.57;;;0.90;;
70406;SDS011;57821;52.202;0.154;2023-08-20T11:09:44;5.38;;;0.95;;
70406;SDS011;57821;52.202;0.154;2023-08-20T11:12:11;4.82;;;0.88;;
70406;SDS011;57821;52.202;0.154;2023-08-20T11:14:40;5.90;;;1.23;;
70406;SDS011;57821;52.202;0.154;2023-08-20T11:17:07;5.43;;;1.17;;
70406;SDS011;57821;52.202;0.154;2023-08-20T11:19:33;4.07;;;0.80;;
70406;SDS011;57821;52.202;0.154;2023-08-20T11:22:01;7.18;;;1.10;;
70406;SDS011;57821;52.202;0.154;2023-08-20T11:24:28;5.47;;;1.10;;
70406;SDS011;57821;52.202;0.154;2023-08-20T11:26:55;7.22;;;1.17;;
70406;SDS011;57821;52.202;0.154;2023-08-20T11:29:22;6.32;;;0.95;;
70406;SDS011;57821;52.202;0.154;2023-08-20T11:31:49;6.13;;;0.90;;
70406;SDS011;57821;52.202;0.154;2023-08-20T11:34:17;5.80;;;1.13;;
70406;SDS011;57821;52.202;0.154;2023-08-20T11:36:45;5.95;;;1.15;;
70406;SDS011;57821;52.202;0.154;2023-08-20T11:39:12;5.32;;;0.85;;
70406;SDS011;57821;52.202;0.154;2023-08-20T11:41:39;5.35;;;0.95;;
70406;SDS011;57821;52.202;0.154;2023-08-20T11:44:09;6.45;;;1.00;;
70406;SDS011;57821;52.202;0.154;2023-08-20T11:46:43;5.80;;;1.10;;
70406;SDS011;57821;52.202;0.154;2023-08-20T11:49:11;4.70;;;0.98;;
70406;SDS011;57821;52.202;0.154;2023-08-20T11:51:40;6.63;;;1.50;;
70406;SDS011;57821;52.202;0.154;2023-08-20T11:54:24;4.38;;;0.85;;
70406;SDS011;57821;52.202;0.154;2023-08-20T11:56:51;5.95;;;1.10;;
70406;SDS011;57821;52.202;0.154;2023-08-20T11:59:19;5.28;;;1.15;;
70406;SDS011;57821;52.202;0.154;2023-08-20T12:01:50;5.75;;;1.05;;
70406;SDS011;57821;52.202;0.154;2023-08-20T12:04:17;6.93;;;1.00;;
70406;SDS011;57821;52.202;0.154;2023-08-20T12:06:44;4.10;;;0.90;;
70406;SDS011;57821;52.202;0.154;2023-08-20T12:09:20;4.53;;;0.95;;
70406;SDS011;57821;52.202;0.154;2023-08-20T12:11:52;3.85;;;0.85;;
70406;SDS011;57821;52.202;0.154;2023-08-20T12:14:18;6.60;;;0.90;;
70406;SDS011;57821;52.202;0.154;2023-08-20T12:16:45;4.50;;;0.80;;
70406;SDS011;57821;52.202;0.154;2023-08-20T12:19:12;8.20;;;1.08;;
70406;SDS011;57821;52.202;0.154;2023-08-20T12:21:40;5.72;;;1.02;;
70406;SDS011;57821;52.202;0.154;2023-08-20T12:24:07;3.55;;;1.00;;
70406;SDS011;57821;52.202;0.154;2023-08-20T12:26:34;3.97;;;0.63;;
70406;SDS011;57821;52.202;0.154;2023-08-20T12:29:01;4.68;;;0.80;;
70406;SDS011;57821;52.202;0.154;2023-08-20T12:31:27;8.20;;;1.17;;
70406;SDS011;57821;52.202;0.154;2023-08-20T12:33:54;3.67;;;0.70;;
70406;SDS011;57821;52.202;0.154;2023-08-20T12:36:20;5.45;;;0.75;;
70406;SDS011;57821;52.202;0.154;2023-08-20T12:38:47;6.35;;;0.90;;
70406;SDS011;57821;52.202;0.154;2023-08-20T12:41:13;7.18;;;0.95;;
70406;SDS011;57821;52.202;0.154;2023-08-20T12:43:40;5.05;;;1.20;;
70406;SDS011;57821;52.202;0.154;2023-08-20T12:46:07;4.90;;;0.80;;
70406;SDS011;57821;52.202;0.154;2023-08-20T12:48:34;5.50;;;0.70;;
70406;SDS011;57821;52.202;0.154;2023-08-20T12:51:00;3.92;;;0.82;;
70406;SDS011;57821;52.202;0.154;2023-08-20T12:53:27;4.40;;;0.63;;
70406;SDS011;57821;52.202;0.154;2023-08-20T12:55:54;4.90;;;1.15;;
70406;SDS011;57821;52.202;0.154;2023-08-20T12:58:22;3.25;;;0.45;;
70406;SDS011;57821;52.202;0.154;2023-08-20T13:00:48;5.05;;;0.75;;
70406;SDS011;57821;52.202;0.154;2023-08-20T13:03:15;3.10;;;0.60;;
70406;SDS011;57821;52.202;0.154;2023-08-20T13:05:42;2.95;;;0.60;;
70406;SDS011;57821;52.202;0.154;2023-08-20T13:08:09;3.70;;;0.70;;
70406;SDS011;57821;52.202;0.154;2023-08-20T13:10:36;2.85;;;0.50;;
70406;SDS011;57821;52.202;0.154;2023-08-20T13:13:03;4.65;;;0.70;;
70406;SDS011;57821;52.202;0.154;2023-08-20T13:15:30;3.65;;;0.55;;
70406;SDS011;57821;52.202;0.154;2023-08-20T13:17:57;3.53;;;0.65;;
70406;SDS011;57821;52.202;0.154;2023-08-20T13:20:24;5.28;;;0.95;;
70406;SDS011;57821;52.202;0.154;2023-08-20T13:22:51;3.33;;;0.60;;
70406;SDS011;57821;52.202;0.154;2023-08-20T13:25:18;3.85;;;0.60;;
70406;SDS011;57821;52.202;0.154;2023-08-20T13:27:45;3.35;;;0.85;;
70406;SDS011;57821;52.202;0.154;2023-08-20T13:30:12;3.42;;;0.70;;
70406;SDS011;57821;52.202;0.154;2023-08-20T13:32:38;5.70;;;0.88;;
70406;SDS011;57821;52.202;0.154;2023-08-20T13:35:05;2.85;;;0.40;;
70406;SDS011;57821;52.202;0.154;2023-08-20T13:37:32;4.43;;;0.80;;
70406;SDS011;57821;52.202;0.154;2023-08-20T13:39:59;5.05;;;0.80;;
70406;SDS011;57821;52.202;0.154;2023-08-20T13:42:26;3.15;;;0.70;;
70406;SDS011;57821;52.202;0.154;2023-08-20T13:44:52;4.97;;;0.90;;
70406;SDS011;57821;52.202;0.154;2023-08-20T13:47:19;2.17;;;0.52;;
70406;SDS011;57821;52.202;0.154;2023-08-20T13:49:46;3.22;;;0.60;;
70406;SDS011;57821;52.202;0.154;2023-08-20T13:52:12;5.60;;;0.77;;
70406;SDS011;57821;52.202;0.154;2023-08-20T13:54:39;8.55;;;0.90;;
70406;SDS011;57821;52.202;0.154;2023-08-20T13:57:05;4.78;;;0.77;;
70406;SDS011;57821;52.202;0.154;2023-08-20T13:59:32;3.55;;;0.45;;
70406;SDS011;57821;52.202;0.154;2023-08-20T14:01:58;3.13;;;0.60;;
70406;SDS011;57821;52.202;0.154;2023-08-20T14:04:25;3.13;;;0.60;;
70406;SDS011;57821;52.202;0.154;2023-08-20T14:06:51;3.53;;;0.60;;
70406;SDS011;57821;52.202;0.154;2023-08-20T14:09:18;6.38;;;1.15;;
70406;SDS011;57821;52.202;0.154;2023-08-20T14:11:45;6.15;;;0.88;;
70406;SDS011;57821;52.202;0.154;2023-08-20T14:14:12;3.55;;;0.65;;
70406;SDS011;57821;52.202;0.154;2023-08-20T14:16:38;4.15;;;0.70;;
70406;SDS011;57821;52.202;0.154;2023-08-20T14:19:05;3.53;;;0.70;;
70406;SDS011;57821;52.202;0.154;2023-08-20T14:21:31;3.63;;;0.85;;
70406;SDS011;57821;52.202;0.154;2023-08-20T14:23:58;4.05;;;0.77;;
70406;SDS011;57821;52.202;0.154;2023-08-20T14:26:24;3.35;;;0.60;;
70406;SDS011;57821;52.202;0.154;2023-08-20T14:28:51;6.72;;;0.80;;
70406;SDS011;57821;52.202;0.154;2023-08-20T14:31:17;6.38;;;1.23;;
70406;SDS011;57821;52.202;0.154;2023-08-20T14:33:44;5.00;;;0.98;;
70406;SDS011;57821;52.202;0.154;2023-08-20T14:36:11;4.30;;;1.23;;
70406;SDS011;57821;52.202;0.154;2023-08-20T14:38:38;4.72;;;0.80;;
70406;SDS011;57821;52.202;0.154;2023-08-20T14:41:04;5.03;;;0.98;;
70406;SDS011;57821;52.202;0.154;2023-08-20T14:43:31;4.88;;;1.00;;
70406;SDS011;57821;52.202;0.154;2023-08-20T14:45:58;4.53;;;0.88;;
70406;SDS011;57821;52.202;0.154;2023-08-20T14:48:25;5.70;;;0.80;;
70406;SDS011;57821;52.202;0.154;2023-08-20T14:50:51;5.38;;;0.60;;
70406;SDS011;57821;52.202;0.154;2023-08-20T14:53:18;4.05;;;0.75;;